Barataria, Louisiana
Current Conditions -  °F | °C
As of 9:55 AM on Sunday 25 Jan 2015 (Local Time) from KNBG Reporting Station
Few Clouds Few Clouds  
Wind Chill: 58°   Ceiling: Unl
Heat Index: 58°   Visibility: 10mi
Dew Point: 41°   Wind: 14mph
Humidity: 53%   Direction: 250°WSW
Pressure: 30.04"   Gusts: 20mph
Location:  29.72°N, 90.12°W
Report Text: KNBG 251555Z 25012G17KT 10SM FEW250 14/05 A3004 RMK AO2 SLP173 T01440050 $
Loading
Personal Weather Stations






























Interactive Weather Map New forecast layout! Learn more

10-Day Weather Forecast

Advertisements
Track Severe Weather on mobile